Time;durP1;ratioP1;P1;durP2;ratioP2;P2;SDS_P1;SDS_P2;PMS_P1;PMS_P2;Temp;Humidity;BMP_temperature;BMP_pressure;BME280_temperature;BME280_humidity;BME280_pressure;Samples;Min_cycle;Max_cycle;Signal;HPM_P1;HPM_P2
2021/12/03 00:02:30;;;;;;;7.78;6.18;;;;;;;;;;6316196;28;20020;-85
2021/12/03 00:05:31;;;;;;;7.22;6.32;;;;;;;;;;6315710;28;20031;-84
2021/12/03 00:08:32;;;;;;;8.43;6.90;;;;;;;;;;6298861;28;20592;-85
2021/12/03 00:11:33;;;;;;;10.10;6.63;;;;;;;;;;6301932;28;20473;-85
2021/12/03 00:14:34;;;;;;;9.98;7.68;;;;;;;;;;6320116;28;20078;-85
2021/12/03 00:17:35;;;;;;;8.30;6.63;;;;;;;;;;6320777;28;20027;-84
2021/12/03 00:20:36;;;;;;;9.30;7.13;;;;;;;;;;6320163;28;20040;-84
2021/12/03 00:23:37;;;;;;;9.23;6.72;;;;;;;;;;6320080;28;20028;-85
2021/12/03 00:26:39;;;;;;;7.80;6.40;;;;;;;;;;6319995;28;20083;-84
2021/12/03 00:29:40;;;;;;;7.90;6.30;;;;;;;;;;6286650;28;20032;-84
2021/12/03 00:32:41;;;;;;;8.20;7.00;;;;;;;;;;6300585;28;20046;-85
2021/12/03 00:35:42;;;;;;;8.45;6.80;;;;;;;;;;6285817;28;20536;-84
2021/12/03 00:38:45;;;;;;;9.20;6.68;;;1.10;99.90;;;;;;6285183;28;20040;-85
2021/12/03 00:41:49;;;;;;;9.90;7.13;;;;;;;;;;6286479;28;20028;-85
2021/12/03 00:44:55;;;;;;;8.18;6.43;;;0.80;99.90;;;;;;6286871;28;20059;-84
2021/12/03 00:47:56;;;;;;;8.77;6.57;;;;;;;;;;6287382;28;20024;-84
2021/12/03 00:50:57;;;;;;;9.20;7.05;;;;;;;;;;6320702;28;20024;-84
2021/12/03 00:53:58;;;;;;;8.10;6.75;;;;;;;;;;6302852;28;20056;-84
2021/12/03 00:56:58;;;;;;;10.18;7.10;;;0.90;99.90;;;;;;6285527;28;20386;-85
2021/12/03 00:59:59;;;;;;;9.73;6.90;;;;;;;;;;6285818;28;20040;-84
2021/12/03 01:03:01;;;;;;;11.00;6.35;;;1.00;99.90;;;;;;6302584;28;20036;-85
2021/12/03 01:06:02;;;;;;;9.20;6.55;;;;;;;;;;6268726;28;20063;-85
2021/12/03 01:09:03;;;;;;;9.00;6.38;;;;;;;;;;6285603;28;20351;-85
2021/12/03 01:12:04;;;;;;;12.05;6.90;;;1.00;99.90;;;;;;6285696;28;20445;-85
2021/12/03 01:15:06;;;;;;;9.30;6.25;;;1.00;99.90;;;;;;6268601;28;20031;-85
2021/12/03 01:18:07;;;;;;;7.53;6.50;;;0.90;99.90;;;;;;6285958;28;20039;-85
2021/12/03 01:21:08;;;;;;;7.63;6.60;;;0.90;99.90;;;;;;6268372;28;20040;-85
2021/12/03 01:24:09;;;;;;;12.77;6.72;;;;;;;;;;6267881;28;20028;-85
2021/12/03 01:27:10;;;;;;;7.93;6.50;;;;;;;;;;6284839;28;20083;-85
2021/12/03 01:30:12;;;;;;;9.52;5.75;;;1.10;99.90;;;;;;6285053;28;20462;-85
2021/12/03 01:33:13;;;;;;;11.00;6.03;;;;;;;;;;6268309;28;20038;-85
2021/12/03 01:36:14;;;;;;;9.73;5.72;;;1.20;99.90;;;;;;6284676;28;20031;-85
2021/12/03 01:39:15;;;;;;;8.30;5.72;;;;;;;;;;6284648;28;20028;-85
2021/12/03 01:42:16;;;;;;;7.50;5.82;;;;;;;;;;6284664;28;20082;-84
2021/12/03 01:45:19;;;;;;;9.23;6.18;;;1.10;99.90;;;;;;6301323;28;20024;-85
2021/12/03 01:48:20;;;;;;;7.53;6.03;;;;;;;;;;6268190;28;20032;-85
2021/12/03 01:51:21;;;;;;;9.43;6.03;;;;;;;;;;6284691;28;20025;-85
2021/12/03 01:54:22;;;;;;;10.35;6.28;;;;;;;;;;6284417;28;20102;-84
2021/12/03 01:57:23;;;;;;;8.55;6.22;;;0.80;99.90;;;;;;6284503;28;20030;-85
2021/12/03 02:00:29;;;;;;;8.88;5.93;;;1.00;99.90;;;;;;6300913;28;20090;-84
2021/12/03 02:03:31;;;;;;;9.07;5.97;;;0.90;99.90;;;;;;6267913;28;20059;-84
2021/12/03 02:06:32;;;;;;;7.47;6.10;;;;;;;;;;6284569;28;20039;-85
2021/12/03 02:09:33;;;;;;;7.47;6.25;;;;;;;;;;6284163;28;20545;-85
2021/12/03 02:12:34;;;;;;;7.75;6.10;;;0.80;99.90;;;;;;6284079;28;20035;-85
2021/12/03 02:15:35;;;;;;;9.13;6.00;;;;;;;;;;6267399;28;20481;-85
2021/12/03 02:18:35;;;;;;;8.32;5.95;;;0.60;99.90;;;;;;6300809;28;20028;-85
2021/12/03 02:21:36;;;;;;;11.18;6.60;;;0.40;99.90;;;;;;6283817;28;20576;-85
2021/12/03 02:24:37;;;;;;;10.43;6.82;;;;;;;;;;6283647;28;20031;-84
2021/12/03 02:27:38;;;;;;;8.35;6.50;;;;;;;;;;6283741;28;20390;-85
2021/12/03 02:30:39;;;;;;;6.95;6.07;;;;;;;;;;6283557;28;20024;-85
2021/12/03 02:33:40;;;;;;;8.93;6.43;;;0.70;99.90;;;;;;6283352;28;20036;-85
2021/12/03 02:36:40;;;;;;;10.45;6.32;;;0.60;99.90;;;;;;6266663;28;20647;-85
2021/12/03 02:39:41;;;;;;;7.32;6.53;;;;;;;;;;6283721;28;20040;-85
2021/12/03 02:42:42;;;;;;;9.57;6.43;;;0.40;99.90;;;;;;6300103;28;20039;-85
2021/12/03 02:45:43;;;;;;;7.72;6.28;;;;;;;;;;6266959;28;20488;-85
2021/12/03 02:48:44;;;;;;;9.25;6.85;;;;;;;;;;6283516;28;20385;-84
2021/12/03 02:51:45;;;;;;;9.20;6.90;;;0.60;99.90;;;;;;6283307;28;20020;-84
2021/12/03 02:54:46;;;;;;;8.90;6.22;;;;;;;;;;6283534;28;20024;-84
2021/12/03 02:57:47;;;;;;;7.38;6.13;;;;;;;;;;6283321;28;20497;-84
2021/12/03 03:00:48;;;;;;;10.85;6.82;;;0.20;99.90;;;;;;6299878;28;20117;-84
2021/12/03 03:03:49;;;;;;;7.78;6.03;;;;;;;;;;6266432;28;20031;-85
2021/12/03 03:06:50;;;;;;;9.40;7.38;;;0.80;99.90;;;;;;6300179;28;20036;-85
2021/12/03 03:09:51;;;;;;;8.75;6.20;;;;;;;;;;6282961;28;20020;-85
2021/12/03 03:12:52;;;;;;;8.63;6.70;;;;;;;;;;6283045;28;20381;-85
2021/12/03 03:15:53;;;;;;;9.27;6.18;;;;;;;;;;6283043;28;20032;-85
2021/12/03 03:18:54;;;;;;;10.90;7.22;;;;;;;;;;6283095;28;20035;-85
2021/12/03 03:21:55;;;;;;;10.43;7.45;;;;;;;;;;6299459;28;20032;-84
2021/12/03 03:24:59;;;;;;;12.55;6.57;;;;;;;;;;6282747;28;20047;-84
2021/12/03 03:28:00;;;;;;;7.70;6.28;;;;;;;;;;6300359;28;20029;-85
2021/12/03 03:31:01;;;;;;;9.02;7.10;;;;;;;;;;6299748;28;20078;-85
2021/12/03 03:34:02;;;;;;;8.70;6.63;;;;;;;;;;6299523;28;20026;-85
2021/12/03 03:37:04;;;;;;;10.75;6.95;;;;;;;;;;6282391;28;20028;-85
2021/12/03 03:40:05;;;;;;;10.80;6.63;;;;;;;;;;6299328;28;20025;-85
2021/12/03 03:43:06;;;;;;;10.35;6.82;;;;;;;;;;6282605;28;20028;-85
2021/12/03 03:46:07;;;;;;;10.85;8.48;;;;;;;;;;6285208;28;20123;-85
2021/12/03 03:49:08;;;;;;;9.57;7.10;;;;;;;;;;6322474;28;20446;-85
2021/12/03 03:52:08;;;;;;;13.27;7.18;;;0.60;99.90;;;;;;6287804;28;20028;-85
2021/12/03 03:55:10;;;;;;;8.68;6.65;;;;;;;;;;6270678;28;20032;-85
2021/12/03 03:58:11;;;;;;;11.35;7.95;;;;;;;;;;6287234;28;20110;-85
2021/12/03 04:01:12;;;;;;;10.13;7.35;;;;;;;;;;6303882;28;20473;-85
2021/12/03 04:04:13;;;;;;;11.85;7.55;;;;;;;;;;6303699;28;20024;-85
2021/12/03 04:07:14;;;;;;;13.52;7.47;;;;;;;;;;6303925;28;20031;-85
2021/12/03 04:10:15;;;;;;;9.30;7.35;;;;;;;;;;6287100;28;20064;-85
2021/12/03 04:13:16;;;;;;;8.57;6.60;;;;;;;;;;6287284;28;20031;-85
2021/12/03 04:16:17;;;;;;;11.02;7.00;;;;;;;;;;6303664;28;20054;-85
2021/12/03 04:19:18;;;;;;;11.45;7.57;;;0.50;99.90;;;;;;6287111;28;20040;-85
2021/12/03 04:22:23;;;;;;;12.52;7.20;;;;;;;;;;6270170;28;20031;-85
2021/12/03 04:25:24;;;;;;;8.77;6.93;;;0.30;99.90;;;;;;6286969;28;20052;-85
2021/12/03 04:28:25;;;;;;;10.73;7.35;;;;;;;;;;6270113;28;20050;-86
2021/12/03 04:31:25;;;;;;;8.90;7.45;;;0.40;99.90;;;;;;6303162;28;20059;-85
2021/12/03 04:34:26;;;;;;;9.45;6.68;;;0.40;99.90;;;;;;6269732;28;20051;-85
2021/12/03 04:37:27;;;;;;;9.70;6.70;;;;;;;;;;6269535;28;20024;-85
2021/12/03 04:40:28;;;;;;;8.93;6.68;;;;;;;;;;6286133;28;20069;-85
2021/12/03 04:43:29;;;;;;;9.77;6.82;;;;;;;;;;6302818;28;20054;-85
2021/12/03 04:46:30;;;;;;;9.43;7.07;;;;;;;;;;6286514;28;20044;-84
2021/12/03 04:49:31;;;;;;;13.63;7.50;;;;;;;;;;6303038;28;20023;-84
2021/12/03 04:52:32;;;;;;;14.55;8.05;;;;;;;;;;6285721;28;20071;-84
2021/12/03 04:55:33;;;;;;;9.93;7.07;;;;;;;;;;6302813;28;20039;-84
2021/12/03 04:58:34;;;;;;;11.35;7.57;;;;;;;;;;6302588;28;20028;-83
2021/12/03 05:01:35;;;;;;;11.70;7.40;;;0.40;99.90;;;;;;6302658;28;20112;-84
2021/12/03 05:04:38;;;;;;;9.57;7.45;;;;;;;;;;6285164;28;20635;-83
2021/12/03 05:10:41;;;;;;;11.77;7.78;;;0.50;99.90;;;;;;6302203;28;20584;-84
2021/12/03 05:13:42;;;;;;;9.13;7.45;;;;;;;;;;6268801;28;20509;-83
2021/12/03 05:16:45;;;;;;;13.43;7.30;;;0.50;99.90;;;;;;6301961;28;20020;-83
2021/12/03 05:19:45;;;;;;;10.48;7.50;;;0.60;99.90;;;;;;6286112;28;20498;-83
2021/12/03 05:22:46;;;;;;;11.82;7.68;;;;;;;;;;6268690;28;20028;-83
2021/12/03 05:25:47;;;;;;;11.50;8.00;;;;;;;;;;6301388;28;20475;-84
2021/12/03 05:28:48;;;;;;;13.38;8.63;;;;;;;;;;6284362;28;20478;-83
2021/12/03 05:31:50;;;;;;;12.63;8.40;;;;;;;;;;6283311;28;20028;-84
2021/12/03 05:34:51;;;;;;;17.02;9.15;;;;;;;;;;6284992;28;20532;-84
2021/12/03 05:37:51;;;;;;;12.40;7.90;;;0.70;99.90;;;;;;6285049;28;20062;-85
2021/12/03 05:40:52;;;;;;;11.95;7.78;;;;;;;;;;6268345;28;20363;-83
2021/12/03 05:43:53;;;;;;;21.60;12.85;;;;;;;;;;6285282;28;20024;-89
2021/12/03 05:46:54;;;;;;;17.65;8.23;;;;;;;;;;6287400;28;20074;-90
2021/12/03 05:49:55;;;;;;;17.13;11.13;;;;;;;;;;6286887;28;20032;-85
2021/12/03 05:52:57;;;;;;;22.30;12.77;;;;;;;;;;6302733;28;20492;-86
2021/12/03 05:55:58;;;;;;;15.93;9.57;;;;;;;;;;6302888;28;20028;-90
2021/12/03 05:58:59;;;;;;;11.27;7.90;;;;;;;;;;6286284;28;20618;-87
2021/12/03 06:02:00;;;;;;;13.30;8.07;;;;;;;;;;6286148;28;20034;-88
2021/12/03 06:05:01;;;;;;;11.07;7.32;;;;;;;;;;6285890;28;20048;-88
2021/12/03 06:08:03;;;;;;;9.60;6.78;;;;;;;;;;6285167;28;20043;-87
2021/12/03 06:11:04;;;;;;;11.35;8.77;;;;;;;;;;6284940;28;20105;-83
2021/12/03 06:14:04;;;;;;;11.88;9.23;;;;;;;;;;6284632;28;20416;-81
2021/12/03 06:17:05;;;;;;;12.52;9.13;;;-0.30;99.90;;;;;;6319089;28;20023;-86
2021/12/03 06:20:07;;;;;;;13.48;8.38;;;-0.50;99.90;;;;;;6267082;28;20063;-84
2021/12/03 06:23:08;;;;;;;12.45;9.32;;;;;;;;;;6267823;28;20031;-85
2021/12/03 06:26:09;;;;;;;15.55;10.88;;;;;;;;;;6283783;28;20055;-86
2021/12/03 06:29:10;;;;;;;15.50;11.30;;;;;;;;;;6281323;28;20086;-86
2021/12/03 06:32:11;;;;;;;17.75;11.70;;;;;;;;;;6282538;28;20432;-83
2021/12/03 06:35:13;;;;;;;19.30;13.30;;;-0.50;99.90;;;;;;6282917;28;20043;-84
2021/12/03 06:38:14;;;;;;;14.13;9.73;;;;;;;;;;6266500;28;20038;-85
2021/12/03 06:41:15;;;;;;;16.30;9.75;;;;;;;;;;6283356;28;20043;-81
2021/12/03 06:44:16;;;;;;;16.02;10.38;;;-0.30;99.90;;;;;;6282585;28;20520;-80
2021/12/03 06:47:17;;;;;;;10.50;7.72;;;;;;;;;;6321666;28;20024;-88
2021/12/03 06:50:18;;;;;;;16.20;8.15;;;;;;;;;;6284295;28;20024;-86
2021/12/03 06:53:22;;;;;;;10.57;7.60;;;-0.60;99.90;;;;;;6301187;28;20071;-82
2021/12/03 06:56:31;;;;;;;9.38;7.25;;;;;;;;;;6286116;28;20037;-84
2021/12/03 06:59:32;;;;;;;9.45;7.13;;;;;;;;;;6301065;28;20085;-91
2021/12/03 07:02:51;;;;;;;11.10;7.45;;;-0.90;99.90;;;;;;6287702;28;20404;-93
2021/12/03 07:05:52;;;;;;;11.60;6.97;;;;;;;;;;6286037;28;20024;-85
2021/12/03 07:08:53;;;;;;;38.50;15.85;;;;;;;;;;6318442;28;20031;-84
2021/12/03 07:11:54;;;;;;;22.17;11.38;;;;;;;;;;6283750;28;20043;-93
2021/12/03 07:14:58;;;;;;;13.52;8.85;;;;;;;;;;6284272;28;20059;-91
2021/12/03 07:17:59;;;;;;;13.10;8.25;;;;;;;;;;6285000;28;20035;-91
2021/12/03 07:21:00;;;;;;;15.60;10.45;;;;;;;;;;6286929;28;20036;-91
2021/12/03 07:24:01;;;;;;;15.48;10.15;;;;;;;;;;6289701;28;20473;-91
2021/12/03 07:27:02;;;;;;;17.33;8.65;;;;;;;;;;6289732;28;20155;-91
2021/12/03 07:30:04;;;;;;;12.13;9.27;;;;;;;;;;6290012;28;20032;-92
2021/12/03 07:33:09;;;;;;;15.57;9.85;;;;;;;;;;6289548;28;20027;-91
2021/12/03 07:36:10;;;;;;;15.52;8.65;;;;;;;;;;6290626;28;20119;-91
2021/12/03 07:39:11;;;;;;;12.52;9.05;;;;;;;;;;6289395;28;20389;-92
2021/12/03 07:42:13;;;;;;;10.15;7.68;;;;;;;;;;6289441;28;20078;-91
2021/12/03 07:45:16;;;;;;;9.38;7.40;;;;;;;;;;6289094;28;20023;-91
2021/12/03 07:48:17;;;;;;;13.32;8.70;;;;;;;;;;6289615;28;20035;-90
2021/12/03 07:51:18;;;;;;;11.75;8.68;;;;;;;;;;6288720;28;20036;-91
2021/12/03 07:54:19;;;;;;;11.60;8.15;;;;;;;;;;6289177;28;20028;-91
2021/12/03 07:57:20;;;;;;;15.18;8.57;;;;;;;;;;6288914;28;20560;-91
2021/12/03 08:00:21;;;;;;;12.10;8.38;;;;;;;;;;6289057;28;20036;-91
2021/12/03 08:03:22;;;;;;;17.02;11.30;;;;;;;;;;6305425;28;20028;-91
2021/12/03 08:06:24;;;;;;;16.33;11.50;;;;;;;;;;6288844;28;20127;-90
2021/12/03 08:09:25;;;;;;;14.52;9.45;;;;;;;;;;6288779;28;20058;-91
2021/12/03 08:12:26;;;;;;;15.65;10.60;;;;;;;;;;6288527;28;20477;-91
2021/12/03 08:15:27;;;;;;;14.45;9.60;;;;;;;;;;6288179;28;20020;-91
2021/12/03 08:18:28;;;;;;;12.55;8.65;;;;;;;;;;6288834;28;20020;-91
2021/12/03 08:21:29;;;;;;;23.25;10.50;;;;;;;;;;6288223;28;20032;-91
2021/12/03 08:24:30;;;;;;;18.83;10.95;;;;;;;;;;6287803;28;20077;-91
2021/12/03 08:27:31;;;;;;;48.72;14.55;;;;;;;;;;6288517;28;20028;-93
2021/12/03 08:30:32;;;;;;;25.70;11.00;;;;;;;;;;6287734;28;20053;-91
2021/12/03 08:33:33;;;;;;;17.90;9.85;;;;;;;;;;6287857;28;20062;-92
2021/12/03 08:36:34;;;;;;;15.02;10.15;;;;;;;;;;6304279;28;20020;-91
2021/12/03 08:39:36;;;;;;;15.57;10.65;;;;;;;;;;6287255;28;20108;-91
2021/12/03 08:42:37;;;;;;;15.10;10.13;;;;;;;;;;6287856;28;20027;-92
2021/12/03 08:45:40;;;;;;;14.68;9.20;;;1.00;99.90;;;;;;6287399;28;20028;-91
2021/12/03 08:48:45;;;;;;;12.55;9.38;;;;;;;;;;6271001;28;20107;-92
2021/12/03 08:51:52;;;;;;;12.88;9.13;;;;;;;;;;6288027;28;20035;-91
2021/12/03 08:54:55;;;;;;;24.30;10.60;;;;;;;;;;6288370;28;20028;-92
2021/12/03 08:57:56;;;;;;;14.57;8.93;;;;;;;;;;6288096;28;20031;-91
2021/12/03 09:01:00;;;;;;;14.40;8.18;;;;;;;;;;6287214;28;20076;-89
2021/12/03 09:04:05;;;;;;;19.92;14.27;;;;;;;;;;6287480;28;20055;-89
2021/12/03 09:07:06;;;;;;;9.65;8.32;;;;;;;;;;6287910;28;20064;-90
2021/12/03 09:10:10;;;;;;;9.88;8.27;;;5.70;99.90;;;;;;6286742;28;20024;-91
2021/12/03 09:13:14;;;;;;;19.65;13.77;;;;;;;;;;6270595;28;20067;-89
2021/12/03 09:16:18;;;;;;;10.40;8.80;;;;;;;;;;6287353;28;20489;-91
2021/12/03 09:19:26;;;;;;;14.35;10.38;;;;;;;;;;6287372;28;20036;-92
2021/12/03 09:22:35;;;;;;;8.73;6.60;;;;;;;;;;6287905;28;20125;-92
2021/12/03 09:25:42;;;;;;;10.05;7.53;;;;;;;;;;6287942;28;20465;-90
2021/12/03 09:28:44;;;;;;;10.43;7.70;;;7.40;99.90;;;;;;6279876;28;20118;-91
2021/12/03 09:31:48;;;;;;;9.68;7.28;;;;;;;;;;6276344;28;20036;-90
2021/12/03 09:34:49;;;;;;;10.20;8.70;;;7.70;99.90;;;;;;6286738;28;20028;-92
2021/12/03 09:37:50;;;;;;;9.18;6.82;;;;;;;;;;6269859;28;20397;-92
2021/12/03 09:40:51;;;;;;;13.77;8.70;;;8.10;99.90;;;;;;6286235;28;20038;-90
2021/12/03 09:43:52;;;;;;;9.45;7.60;;;8.10;99.90;;;;;;6268409;28;20032;-91
2021/12/03 09:46:53;;;;;;;11.63;7.63;;;;;;;;;;6269554;28;20111;-89
2021/12/03 09:49:56;;;;;;;10.32;7.30;;;;;;;;;;6301605;28;20143;-90
2021/12/03 09:55:57;;;;;;;9.15;6.57;;;9.10;99.90;;;;;;6302272;28;20406;-90
2021/12/03 10:12:18;;;;;;;6.63;5.28;;;10.10;99.90;;;;;;6298318;28;20028;-90
2021/12/03 10:18:43;;;;;;;7.28;5.47;;;11.40;96.70;;;;;;6285264;28;20082;-91
2021/12/03 10:38:07;;;;;;;6.75;4.88;;;12.10;83.30;;;;;;6302251;28;20044;-90
2021/12/03 10:41:24;;;;;;;6.88;4.88;;;;;;;;;;6287544;28;20028;-90
2021/12/03 10:47:40;;;;;;;6.10;4.68;;;;;;;;;;6302212;28;20545;-90
2021/12/03 10:50:48;;;;;;;6.10;4.63;;;;;;;;;;6285928;28;20374;-90
2021/12/03 10:53:58;;;;;;;11.73;6.07;;;11.60;92.50;;;;;;6286119;28;20023;-91
2021/12/03 11:06:51;;;;;;;6.88;4.95;;;11.20;85.90;;;;;;6284868;28;20024;-91
2021/12/03 11:34:04;;;;;;;6.00;4.18;;;8.00;89.50;;;;;;6287909;28;20572;-90
2021/12/03 12:40:47;;;;;;;9.20;5.75;;;5.10;99.90;;;;;;6289273;28;20477;-87
2021/12/03 13:18:25;;;;;;;7.40;5.22;;;4.50;99.90;;;;;;6298239;28;20036;-89
2021/12/03 13:20:56;;;;;;;7.22;4.90;;;;;;;;;;6280538;28;20409;-85
2021/12/03 13:25:06;;;;;;;7.47;4.70;;;4.10;99.90;;;;;;6305219;28;20494;-86
2021/12/03 13:58:44;;;;;;;5.63;4.60;;;;;;;;;;6318992;28;20024;-84
2021/12/03 14:01:46;;;;;;;7.95;5.22;;;3.90;99.90;;;;;;6306778;28;20036;-85
2021/12/03 14:50:27;;;;;;;10.70;5.85;;;;;;;;;;6273556;28;20429;-85
2021/12/03 14:56:48;;;;;;;10.20;6.68;;;;;;;;;;6215997;28;20038;-83
2021/12/03 14:59:58;;;;;;;10.10;6.13;;;2.70;99.90;;;;;;6222845;28;20508;-85
2021/12/03 15:09:42;;;;;;;7.15;5.22;;;2.40;99.90;;;;;;6224927;28;20036;-82
2021/12/03 15:26:04;;;;;;;8.20;4.90;;;1.90;99.90;;;;;;6223480;28;20049;-84
2021/12/03 15:29:37;;;;;;;6.97;4.95;;;;;;;;;;6225645;28;20060;-85
2021/12/03 15:35:57;;;;;;;8.98;5.20;;;;;;;;;;6302264;28;20025;-84
2021/12/03 15:52:50;;;;;;;6.55;4.90;;;;;;;;;;6319660;28;20029;-83
2021/12/03 16:08:50;;;;;;;6.35;4.50;;;0.90;99.90;;;;;;6322232;28;20032;-85
2021/12/03 16:54:10;;;;;;;6.43;4.15;;;;;;;;;;6303017;28;20078;-83
2021/12/03 16:57:13;;;;;;;6.43;4.32;;;;;;;;;;6301654;28;20485;-84
2021/12/03 17:00:26;;;;;;;5.38;4.03;;;0.80;99.90;;;;;;6286953;28;20461;-86
2021/12/03 17:03:33;;;;;;;7.85;4.97;;;;;;;;;;6271492;28;20039;-85
2021/12/03 17:49:41;;;;;;;6.00;3.88;;;;;;;;;;6226682;28;20626;-88
2021/12/03 18:08:21;;;;;;;6.82;4.97;;;;;;;;;;6243644;28;20039;-91
2021/12/03 18:57:20;;;;;;;8.68;4.57;;;1.00;99.90;;;;;;6275905;28;20037;-84
2021/12/03 19:00:25;;;;;;;14.23;8.43;;;;;;;;;;6258305;28;20038;-84
2021/12/03 19:09:44;;;;;;;5.13;4.00;;;;;;;;;;6272795;28;20063;-84
2021/12/03 19:12:51;;;;;;;5.78;3.83;;;1.00;99.90;;;;;;6258635;28;20021;-84
2021/12/03 19:15:52;;;;;;;5.93;4.53;;;;;;;;;;6243516;28;20115;-84
2021/12/03 19:18:55;;;;;;;8.20;5.30;;;1.10;99.90;;;;;;6258056;28;20497;-86
2021/12/03 19:21:58;;;;;;;5.70;4.75;;;;;;;;;;6242110;28;20040;-84
2021/12/03 19:24:59;;;;;;;6.93;3.88;;;;;;;;;;6261260;28;20082;-84
2021/12/03 19:28:00;;;;;;;4.90;4.03;;;1.00;99.90;;;;;;6282264;28;20032;-83
2021/12/03 19:31:02;;;;;;;5.93;3.80;;;;;;;;;;6278910;28;20063;-82
2021/12/03 19:34:03;;;;;;;5.50;4.15;;;;;;;;;;6317639;28;20440;-86
2021/12/03 19:37:04;;;;;;;5.65;3.88;;;1.50;99.90;;;;;;6299156;28;20028;-84
2021/12/03 19:40:07;;;;;;;5.85;3.90;;;1.60;99.90;;;;;;6299716;28;20122;-86
2021/12/03 19:43:12;;;;;;;5.47;4.00;;;;;;;;;;6283485;28;20025;-85
2021/12/03 19:46:19;;;;;;;4.13;3.60;;;;;;;;;;6316846;28;20526;-84
2021/12/03 19:49:46;;;;;;;5.10;3.58;;;;;;;;;;6299282;28;20044;-85
2021/12/03 19:52:52;;;;;;;5.25;4.13;;;;;;;;;;6294071;28;20089;-85
2021/12/03 19:55:53;;;;;;;3.75;3.05;;;1.20;99.90;;;;;;6299108;28;20469;-84
2021/12/03 19:58:55;;;;;;;5.40;3.05;;;;;;;;;;6265607;28;20081;-85
2021/12/03 20:01:57;;;;;;;;;;;1.20;99.90;;;;;;6283417;28;20043;-85
2021/12/03 20:04:59;;;;;;;5.72;3.40;;;;;;;;;;6281509;28;20251;-83
2021/12/03 20:08:02;;;;;;;4.60;3.65;;;;;;;;;;6274406;28;20390;-83
2021/12/03 20:11:07;;;;;;;7.10;3.15;;;;;;;;;;6282385;28;20024;-84
2021/12/03 20:14:11;;;;;;;5.03;2.90;;;;;;;;;;6299050;28;20024;-84
2021/12/03 20:17:33;;;;;;;3.80;2.72;;;1.20;99.90;;;;;;6282748;28;20028;-86
2021/12/03 20:20:33;;;;;;;6.90;3.20;;;;;;;;;;6271655;28;20025;-85
2021/12/03 20:24:23;;;;;;;4.55;3.42;;;;;;;;;;6281996;28;20473;-84
2021/12/03 20:27:08;;;;;;;4.47;3.72;;;;;;;;;;6290114;28;20056;-83
2021/12/03 20:30:51;;;;;;;;;;;1.30;99.90;;;;;;6288078;28;20043;-84
2021/12/03 20:37:00;;;;;;;3.83;2.42;;;1.30;99.90;;;;;;6305373;28;20032;-82
2021/12/03 20:40:07;;;;;;;8.25;4.38;;;;;;;;;;6302797;28;20044;-83
2021/12/03 20:49:22;;;;;;;3.85;2.70;;;;;;;;;;6286494;28;20086;-87
2021/12/03 20:52:45;;;;;;;3.60;2.60;;;1.40;99.90;;;;;;6288382;28;20020;-85
2021/12/03 21:09:10;;;;;;;3.15;2.55;;;;;;;;;;6305585;28;20032;-87
2021/12/03 21:15:34;;;;;;;3.08;2.30;;;;;;;;;;6303991;28;20028;-84
2021/12/03 21:21:56;;;;;;;;;;;1.50;99.90;;;;;;6304893;28;20040;-85
2021/12/03 21:25:01;;;;;;;3.42;2.63;;;1.50;99.90;;;;;;6303591;28;19972;-86
2021/12/03 21:31:36;;;;;;;5.15;3.20;;;1.40;99.90;;;;;;6303057;28;20054;-85
2021/12/03 21:41:26;;;;;;;4.43;2.50;;;;;;;;;;6304288;28;20040;-86
2021/12/03 21:44:27;;;;;;;2.33;2.00;;;;;;;;;;6287015;28;20020;-86
2021/12/03 21:47:28;;;;;;;2.67;2.33;;;;;;;;;;6283773;28;20030;-86
2021/12/03 21:50:29;;;;;;;2.20;1.98;;;;;;;;;;6284593;28;20085;-85
2021/12/03 21:53:30;;;;;;;2.38;2.03;;;;;;;;;;6302069;28;20073;-84
2021/12/03 21:56:31;;;;;;;4.32;2.90;;;1.70;99.90;;;;;;6285037;28;20492;-84
2021/12/03 21:59:32;;;;;;;3.35;2.10;;;1.80;99.90;;;;;;6268216;28;20035;-87
2021/12/03 22:02:33;;;;;;;2.17;1.80;;;;;;;;;;6264046;28;20359;-85
2021/12/03 22:05:34;;;;;;;5.05;2.92;;;1.80;99.90;;;;;;6279689;28;20082;-84
2021/12/03 22:08:35;;;;;;;3.60;2.60;;;;;;;;;;6283066;28;20135;-85
2021/12/03 22:11:36;;;;;;;6.68;3.22;;;;;;;;;;6284892;28;20110;-85
2021/12/03 22:14:38;;;;;;;4.47;2.60;;;1.80;99.90;;;;;;6284344;28;20066;-83
2021/12/03 22:17:39;;;;;;;4.22;2.72;;;;;;;;;;6284379;28;20115;-85
2021/12/03 22:20:40;;;;;;;4.63;2.85;;;;;;;;;;6284430;28;20508;-84
2021/12/03 22:23:43;;;;;;;3.50;2.42;;;1.70;99.90;;;;;;6284094;28;20024;-84
2021/12/03 22:26:43;;;;;;;;;;;1.90;99.90;;;;;;6267203;28;20066;-84
2021/12/03 22:29:44;;;;;;;2.05;1.95;;;;;;;;;;6283091;28;19908;-84
2021/12/03 22:32:45;;;;;;;2.10;1.90;;;;;;;;;;6299774;28;20391;-84
2021/12/03 22:35:46;;;;;;;3.67;3.00;;;;;;;;;;6283770;28;20679;-85
2021/12/03 22:38:47;;;;;;;2.78;2.47;;;;;;;;;;6283580;28;20027;-85
2021/12/03 22:41:51;;;;;;;3.17;2.15;;;;;;;;;;6283693;28;20039;-85
2021/12/03 22:44:52;;;;;;;1.88;1.70;;;;;;;;;;6298215;28;20024;-84
2021/12/03 22:47:58;;;;;;;3.28;2.55;;;;;;;;;;6283613;28;20567;-85
2021/12/03 22:51:09;;;;;;;4.80;2.30;;;2.10;99.90;;;;;;6283808;28;20024;-86
2021/12/03 22:54:10;;;;;;;7.90;4.35;;;;;;;;;;6286260;28;20077;-85
2021/12/03 22:57:16;;;;;;;3.90;3.05;;;2.20;99.90;;;;;;6298616;28;20028;-82
2021/12/03 23:00:31;;;;;;;3.08;2.10;;;2.20;99.90;;;;;;6270624;28;20436;-85
2021/12/03 23:03:33;;;;;;;8.38;4.40;;;2.20;99.90;;;;;;6298059;28;20025;-86
2021/12/03 23:06:34;;;;;;;24.53;13.37;;;;;;;;;;6265930;28;20047;-86
2021/12/03 23:09:36;;;;;;;3.80;2.58;;;2.20;99.90;;;;;;6282140;28;20032;-87
2021/12/03 23:12:37;;;;;;;3.17;2.30;;;;;;;;;;6262824;28;20028;-85
2021/12/03 23:15:38;;;;;;;5.53;3.00;;;;;;;;;;6300148;28;20036;-87
2021/12/03 23:18:39;;;;;;;3.22;2.35;;;;;;;;;;6300251;28;20024;-88
2021/12/03 23:21:40;;;;;;;1.90;1.80;;;;;;;;;;6282559;28;20043;-85
2021/12/03 23:24:41;;;;;;;2.55;2.03;;;2.40;99.90;;;;;;6281503;28;20501;-85
2021/12/03 23:27:42;;;;;;;10.80;7.43;;;2.30;99.90;;;;;;6264200;28;20032;-85
2021/12/03 23:30:43;;;;;;;3.83;2.70;;;;;;;;;;6264803;28;20051;-85
2021/12/03 23:33:45;;;;;;;4.43;3.47;;;;;;;;;;6281482;28;20426;-84
2021/12/03 23:36:46;;;;;;;3.75;2.53;;;2.20;99.90;;;;;;6284111;28;20158;-84
2021/12/03 23:39:47;;;;;;;6.13;3.47;;;;;;;;;;6265222;28;20561;-85
2021/12/03 23:42:48;;;;;;;10.73;6.68;;;;;;;;;;6282789;28;20028;-86
2021/12/03 23:45:49;;;;;;;8.18;4.40;;;2.20;99.90;;;;;;6283467;28;20024;-87
2021/12/03 23:48:51;;;;;;;8.23;5.97;;;;;;;;;;6266584;28;20035;-89
2021/12/03 23:51:56;;;;;;;7.00;5.05;;;;;;;;;;6283475;28;20083;-85
2021/12/03 23:55:01;;;;;;;8.18;4.70;;;;;;;;;;6281762;28;20028;-86
2021/12/03 23:58:02;;;;;;;7.30;5.03;;;;;;;;;;6300345;28;20020;-88
